createdAt,value
2023-04-23T00:00:34.366Z,5.60
2023-04-23T00:03:26.172Z,6.63
2023-04-23T00:06:12.268Z,6.72
2023-04-23T00:08:42.918Z,6.68
2023-04-23T00:11:10.441Z,7.57
2023-04-23T00:13:38.332Z,8.05
2023-04-23T00:16:06.028Z,7.53
2023-04-23T00:18:33.376Z,7.63
2023-04-23T00:21:03.284Z,7.38
2023-04-23T00:23:30.387Z,7.30
2023-04-23T00:25:57.697Z,7.43
2023-04-23T00:28:24.923Z,7.80
2023-04-23T00:30:51.840Z,8.27
2023-04-23T00:33:19.237Z,7.47
2023-04-23T00:35:49.335Z,7.40
2023-04-23T00:38:16.926Z,7.90
2023-04-23T00:40:44.107Z,7.65
2023-04-23T00:43:11.916Z,7.85
2023-04-23T00:45:39.000Z,7.47
2023-04-23T00:48:07.333Z,7.55
2023-04-23T00:50:34.529Z,7.32
2023-04-23T00:53:01.615Z,8.13
2023-04-23T00:55:28.576Z,8.10
2023-04-23T00:57:56.031Z,8.43
2023-04-23T01:00:23.699Z,7.82
2023-04-23T01:02:53.230Z,8.23
2023-04-23T01:05:23.074Z,8.43
2023-04-23T01:07:51.552Z,7.20
2023-04-23T01:10:18.894Z,7.05
2023-04-23T01:12:47.082Z,7.43
2023-04-23T01:15:14.509Z,7.50
2023-04-23T01:17:41.786Z,7.85
2023-04-23T01:20:10.015Z,7.65
2023-04-23T01:22:39.111Z,7.93
2023-04-23T01:25:08.399Z,7.80
2023-04-23T01:27:36.419Z,8.60
2023-04-23T01:30:05.152Z,8.70
2023-04-23T01:32:34.433Z,8.18
2023-04-23T01:35:03.062Z,8.40
2023-04-23T01:37:31.784Z,7.80
2023-04-23T01:39:59.451Z,7.32
2023-04-23T01:42:27.060Z,7.90
2023-04-23T01:44:54.544Z,7.47
2023-04-23T01:47:22.249Z,6.95
2023-04-23T01:49:49.828Z,7.68
2023-04-23T01:52:17.254Z,7.55
2023-04-23T01:54:44.534Z,7.20
2023-04-23T01:57:13.155Z,7.53
2023-04-23T01:59:41.287Z,7.40
2023-04-23T02:02:14.119Z,7.78
2023-04-23T02:04:43.267Z,7.88
2023-04-23T02:07:10.978Z,7.07
2023-04-23T02:09:38.279Z,7.10
2023-04-23T02:12:06.003Z,6.82
2023-04-23T02:14:33.257Z,6.75
2023-04-23T02:17:00.762Z,7.05
2023-04-23T02:19:28.190Z,6.05
2023-04-23T02:21:55.883Z,5.85
2023-04-23T02:24:22.856Z,5.70
2023-04-23T02:26:50.354Z,5.28
2023-04-23T02:29:17.383Z,4.80
2023-04-23T02:31:44.570Z,4.90
2023-04-23T02:34:12.257Z,4.07
2023-04-23T02:36:39.704Z,4.07
2023-04-23T02:39:07.682Z,4.38
2023-04-23T02:41:35.195Z,5.63
2023-04-23T02:44:02.217Z,4.72
2023-04-23T02:46:29.805Z,4.90
2023-04-23T02:48:59.953Z,3.65
2023-04-23T02:51:27.767Z,3.58
2023-04-23T02:53:55.751Z,4.50
2023-04-23T02:56:23.355Z,4.25
2023-04-23T02:58:51.584Z,4.60
2023-04-23T03:01:19.563Z,3.72
2023-04-23T03:03:47.452Z,3.67
2023-04-23T03:06:15.438Z,4.75
2023-04-23T03:08:43.115Z,5.32
2023-04-23T03:11:11.252Z,5.95
2023-04-23T03:13:39.025Z,6.25
2023-04-23T03:16:07.314Z,4.43
2023-04-23T03:18:35.354Z,3.97
2023-04-23T03:21:03.969Z,4.45
2023-04-23T03:23:32.168Z,4.10
2023-04-23T03:25:59.157Z,4.03
2023-04-23T03:28:26.638Z,3.78
2023-04-23T03:30:53.931Z,4.50
2023-04-23T03:33:37.193Z,4.25
2023-04-23T03:36:06.194Z,4.30
2023-04-23T03:38:34.287Z,4.07
2023-04-23T03:41:03.903Z,4.32
2023-04-23T03:43:34.041Z,3.92
2023-04-23T03:46:05.365Z,4.10
2023-04-23T03:48:37.342Z,3.75
2023-04-23T03:51:10.385Z,3.90
2023-04-23T03:53:45.175Z,3.83
2023-04-23T03:56:30.968Z,4.15
2023-04-23T03:59:13.308Z,3.55
2023-04-23T04:01:41.022Z,3.70
2023-04-23T04:04:09.190Z,4.47
2023-04-23T04:06:37.075Z,3.58
2023-04-23T04:09:04.472Z,4.55
2023-04-23T04:11:31.680Z,4.15
2023-04-23T04:13:59.367Z,4.72
2023-04-23T04:16:27.224Z,6.45
2023-04-23T04:18:56.609Z,7.35
2023-04-23T04:21:23.943Z,6.85
2023-04-23T04:23:51.346Z,7.25
2023-04-23T04:26:19.301Z,6.80
2023-04-23T04:28:47.174Z,4.20
2023-04-23T04:31:16.401Z,3.60
2023-04-23T04:33:46.802Z,3.38
2023-04-23T04:36:15.998Z,3.20
2023-04-23T04:38:44.781Z,3.13
2023-04-23T04:41:12.293Z,3.40
2023-04-23T04:43:41.823Z,3.92
2023-04-23T04:46:12.221Z,4.15
2023-04-23T04:48:41.102Z,4.63
2023-04-23T04:51:08.869Z,4.18
2023-04-23T04:53:36.465Z,3.50
2023-04-23T04:56:04.417Z,3.17
2023-04-23T04:58:32.074Z,3.20
2023-04-23T05:01:00.062Z,3.00
2023-04-23T05:03:52.198Z,3.45
2023-04-23T05:06:20.238Z,3.03
2023-04-23T05:08:49.077Z,2.97
2023-04-23T05:11:18.845Z,3.85
2023-04-23T05:13:47.361Z,3.17
2023-04-23T05:16:15.474Z,3.85
2023-04-23T05:18:47.071Z,3.83
2023-04-23T05:21:16.421Z,4.13
2023-04-23T05:23:43.778Z,4.00
2023-04-23T05:26:12.094Z,3.22
2023-04-23T05:28:39.933Z,3.33
2023-04-23T05:31:07.808Z,3.28
2023-04-23T05:33:46.378Z,2.72
2023-04-23T05:36:17.500Z,2.65
2023-04-23T05:38:45.433Z,2.97
2023-04-23T05:41:13.164Z,3.58
2023-04-23T05:43:41.193Z,2.80
2023-04-23T05:46:15.330Z,3.08
2023-04-23T05:48:43.414Z,2.33
2023-04-23T05:51:12.722Z,2.00
2023-04-23T05:53:40.756Z,1.55
2023-04-23T05:56:08.751Z,1.70
2023-04-23T05:58:37.362Z,1.88
2023-04-23T06:01:05.579Z,1.55
2023-04-23T06:03:33.339Z,2.13
2023-04-23T06:06:00.954Z,1.75
2023-04-23T06:08:28.503Z,2.05
2023-04-23T06:10:56.467Z,2.00
2023-04-23T06:13:23.971Z,1.90
2023-04-23T06:15:51.992Z,2.35
2023-04-23T06:18:19.310Z,2.30
2023-04-23T06:20:48.570Z,1.80
2023-04-23T06:23:16.136Z,1.83
2023-04-23T06:25:44.095Z,1.60
2023-04-23T06:28:11.705Z,2.20
2023-04-23T06:31:05.821Z,2.90
2023-04-23T06:33:34.692Z,2.40
2023-04-23T06:36:01.634Z,2.20
2023-04-23T06:38:29.200Z,2.47
2023-04-23T06:40:57.500Z,2.13
2023-04-23T06:43:25.955Z,2.28
2023-04-23T06:46:11.653Z,2.42
2023-04-23T06:48:40.037Z,2.47
2023-04-23T06:51:08.501Z,1.95
2023-04-23T06:53:37.818Z,1.88
2023-04-23T06:56:05.814Z,2.28
2023-04-23T06:58:34.559Z,2.17
2023-04-23T07:01:12.104Z,2.35
2023-04-23T07:03:40.499Z,2.80
2023-04-23T07:06:09.155Z,2.45
2023-04-23T07:08:36.967Z,2.33
2023-04-23T07:11:05.191Z,2.08
2023-04-23T07:13:33.870Z,1.98
2023-04-23T07:16:01.962Z,2.42
2023-04-23T07:18:36.369Z,2.10
2023-04-23T07:21:04.290Z,2.35
2023-04-23T07:23:31.796Z,2.10
2023-04-23T07:25:59.896Z,2.10
2023-04-23T07:28:28.072Z,2.13
2023-04-23T07:30:56.753Z,2.10
2023-04-23T07:33:23.909Z,2.17
2023-04-23T07:35:52.143Z,1.83
2023-04-23T07:38:20.814Z,1.40
2023-04-23T07:40:48.645Z,1.30
2023-04-23T07:43:18.916Z,1.20
2023-04-23T07:45:47.449Z,1.30
2023-04-23T07:48:19.903Z,1.10
2023-04-23T07:50:47.728Z,0.70
2023-04-23T07:53:15.989Z,0.82
2023-04-23T07:55:45.494Z,0.73
2023-04-23T07:58:13.805Z,1.10
2023-04-23T08:00:43.016Z,1.08
2023-04-23T08:03:11.719Z,0.85
2023-04-23T08:05:41.323Z,0.80
2023-04-23T08:08:09.990Z,1.30
2023-04-23T08:10:38.122Z,0.75
2023-04-23T08:13:05.858Z,1.02
2023-04-23T08:15:33.615Z,1.45
2023-04-23T08:18:01.966Z,1.20
2023-04-23T08:20:29.691Z,1.10
2023-04-23T08:22:58.020Z,0.82
2023-04-23T08:25:27.382Z,0.98
2023-04-23T08:27:54.480Z,0.90
2023-04-23T08:30:22.967Z,1.13
2023-04-23T08:32:56.652Z,1.20
2023-04-23T08:35:25.133Z,1.13
2023-04-23T08:37:52.251Z,1.23
2023-04-23T08:40:19.835Z,1.10
2023-04-23T08:42:57.655Z,1.40
2023-04-23T08:45:26.457Z,1.40
2023-04-23T08:48:01.539Z,1.35
2023-04-23T08:50:31.827Z,1.23
2023-04-23T08:53:00.916Z,1.33
2023-04-23T08:55:29.298Z,1.02
2023-04-23T08:57:59.629Z,1.35
2023-04-23T09:00:27.433Z,1.20
2023-04-23T09:02:56.958Z,1.30
2023-04-23T09:05:24.920Z,1.60
2023-04-23T09:07:54.022Z,1.45
2023-04-23T09:10:21.249Z,1.75
2023-04-23T09:12:50.619Z,1.40
2023-04-23T09:15:20.269Z,1.50
2023-04-23T09:17:48.506Z,1.40
2023-04-23T09:20:16.328Z,1.42
2023-04-23T09:23:01.150Z,1.40
2023-04-23T09:25:28.825Z,1.48
2023-04-23T09:27:59.825Z,1.45
2023-04-23T09:30:31.594Z,1.60
2023-04-23T09:32:59.763Z,1.20
2023-04-23T09:35:29.386Z,1.23
2023-04-23T09:37:58.520Z,1.08
2023-04-23T09:40:28.183Z,1.30
2023-04-23T09:42:56.110Z,1.00
2023-04-23T09:45:27.011Z,1.30
2023-04-23T09:47:56.651Z,1.15
2023-04-23T09:50:39.447Z,1.40
2023-04-23T09:53:10.182Z,1.40
2023-04-23T09:55:40.237Z,1.17
2023-04-23T09:58:12.719Z,0.90
2023-04-23T10:00:40.929Z,1.05
2023-04-23T10:03:10.360Z,1.17
2023-04-23T10:06:00.651Z,1.10
2023-04-23T10:08:31.400Z,1.07
2023-04-23T10:11:13.778Z,1.00
2023-04-23T10:13:47.547Z,1.05
2023-04-23T10:16:22.485Z,1.20
2023-04-23T10:18:55.903Z,1.05
2023-04-23T10:21:39.482Z,1.00
2023-04-23T10:24:15.170Z,1.33
2023-04-23T10:26:44.461Z,1.00
2023-04-23T10:29:19.098Z,1.13
2023-04-23T10:31:46.913Z,1.08
2023-04-23T10:34:15.715Z,0.80
2023-04-23T10:36:43.387Z,1.10
2023-04-23T10:39:12.753Z,1.20
2023-04-23T10:41:42.486Z,1.48
2023-04-23T10:44:16.031Z,1.20
2023-04-23T10:46:57.907Z,1.17
2023-04-23T10:49:26.306Z,1.25
2023-04-23T10:52:19.330Z,1.20
2023-04-23T10:54:50.866Z,1.20
2023-04-23T10:57:17.883Z,1.25
2023-04-23T10:59:56.354Z,1.65
2023-04-23T11:02:25.848Z,1.10
2023-04-23T11:05:01.824Z,1.10
2023-04-23T11:07:33.928Z,1.40
2023-04-23T11:10:13.243Z,1.13
2023-04-23T11:12:41.079Z,1.35
2023-04-23T11:15:19.928Z,1.58
2023-04-23T11:17:54.635Z,1.00
2023-04-23T11:20:24.352Z,1.20
2023-04-23T11:22:53.514Z,1.20
2023-04-23T11:25:27.923Z,1.08
2023-04-23T11:27:58.420Z,1.33
2023-04-23T11:30:30.674Z,1.10
2023-04-23T11:33:00.262Z,1.10
2023-04-23T11:35:29.634Z,1.00
2023-04-23T11:37:57.200Z,1.20
2023-04-23T11:40:24.485Z,1.23
2023-04-23T11:42:55.736Z,1.30
2023-04-23T11:45:27.946Z,1.20
2023-04-23T11:47:59.389Z,1.35
2023-04-23T11:52:55.871Z,1.20
2023-04-23T11:55:24.275Z,1.40
2023-04-23T11:57:53.025Z,2.22
2023-04-23T12:00:24.169Z,2.10
2023-04-23T12:02:51.882Z,1.83
2023-04-23T12:05:24.322Z,2.20
2023-04-23T12:07:54.921Z,2.20
2023-04-23T12:10:23.075Z,2.08
2023-04-23T12:12:54.234Z,3.10
2023-04-23T12:15:21.966Z,2.55
2023-04-23T12:18:08.446Z,2.20
2023-04-23T12:20:35.848Z,2.10
2023-04-23T12:23:06.946Z,2.25
2023-04-23T12:25:35.343Z,2.22
2023-04-23T12:28:07.617Z,2.50
2023-04-23T12:30:35.672Z,2.47
2023-04-23T12:33:04.868Z,2.10
2023-04-23T12:35:46.546Z,1.90
2023-04-23T12:38:26.945Z,1.63
2023-04-23T12:40:55.935Z,2.10
2023-04-23T12:43:23.973Z,1.73
2023-04-23T12:45:52.364Z,2.00
2023-04-23T12:48:19.907Z,1.80
2023-04-23T12:50:49.093Z,2.17
2023-04-23T12:53:16.497Z,1.80
2023-04-23T12:55:45.670Z,1.90
2023-04-23T12:58:13.204Z,1.70
2023-04-23T13:00:40.469Z,1.98
2023-04-23T13:03:08.874Z,1.70
2023-04-23T13:05:36.899Z,1.67
2023-04-23T13:08:04.517Z,1.90
2023-04-23T13:10:33.091Z,1.42
2023-04-23T13:13:01.234Z,1.67
2023-04-23T13:15:28.835Z,1.48
2023-04-23T13:17:56.418Z,1.65
2023-04-23T13:20:26.572Z,1.70
2023-04-23T13:22:54.179Z,1.40
2023-04-23T13:25:21.521Z,1.60
2023-04-23T13:27:48.946Z,1.27
2023-04-23T13:30:16.683Z,1.42
2023-04-23T13:32:44.447Z,1.52
2023-04-23T13:35:12.361Z,1.70
2023-04-23T13:37:41.506Z,1.70
2023-04-23T13:40:09.171Z,1.58
2023-04-23T13:42:36.236Z,1.45
2023-04-23T13:45:06.622Z,1.35
2023-04-23T13:47:35.268Z,1.42
2023-04-23T13:50:06.825Z,1.23
2023-04-23T13:52:40.437Z,1.52
2023-04-23T13:55:11.109Z,1.30
2023-04-23T13:57:41.810Z,1.42
2023-04-23T14:00:15.452Z,1.60
2023-04-23T14:02:45.256Z,1.58
2023-04-23T14:05:14.090Z,1.70
2023-04-23T14:07:42.504Z,1.40
2023-04-23T14:10:10.442Z,1.73
2023-04-23T14:12:39.472Z,3.03
2023-04-23T14:15:09.466Z,3.15
2023-04-23T14:17:39.674Z,1.80
2023-04-23T14:20:08.449Z,1.42
2023-04-23T14:22:36.277Z,1.45
2023-04-23T14:25:09.960Z,1.40
2023-04-23T14:27:44.864Z,1.52
2023-04-23T14:30:19.725Z,1.60
2023-04-23T14:32:49.777Z,1.80
2023-04-23T14:35:17.726Z,1.55
2023-04-23T14:37:45.976Z,1.50
2023-04-23T14:40:15.939Z,1.67
2023-04-23T14:42:43.577Z,1.45
2023-04-23T14:45:11.369Z,1.55
2023-04-23T14:47:41.070Z,1.80
2023-04-23T14:50:08.614Z,1.13
2023-04-23T14:52:36.457Z,1.52
2023-04-23T14:55:03.444Z,1.60
2023-04-23T14:57:31.296Z,1.45
2023-04-23T14:59:58.733Z,1.33
2023-04-23T15:02:26.589Z,1.60
2023-04-23T15:04:54.097Z,1.67
2023-04-23T15:07:21.598Z,1.48
2023-04-23T15:09:50.277Z,1.50
2023-04-23T15:12:40.434Z,1.50
2023-04-23T15:15:37.045Z,1.60
2023-04-23T15:18:08.605Z,1.58
2023-04-23T15:20:35.870Z,1.23
2023-04-23T15:23:03.026Z,1.33
2023-04-23T15:25:30.876Z,1.38
2023-04-23T15:27:58.399Z,1.27
2023-04-23T15:30:27.026Z,1.40
2023-04-23T15:32:58.201Z,1.30
2023-04-23T15:35:27.302Z,1.42
2023-04-23T15:37:55.314Z,1.48
2023-04-23T15:40:22.762Z,1.23
2023-04-23T15:42:50.227Z,1.55
2023-04-23T15:45:17.973Z,1.17
2023-04-23T15:47:46.125Z,1.40
2023-04-23T15:50:15.622Z,1.65
2023-04-23T15:52:43.401Z,1.30
2023-04-23T15:55:11.323Z,1.45
2023-04-23T15:57:39.161Z,1.40
2023-04-23T16:00:07.378Z,1.60
2023-04-23T16:02:39.589Z,1.63
2023-04-23T16:05:07.612Z,1.70
2023-04-23T16:07:35.106Z,1.50
2023-04-23T16:10:03.049Z,1.60
2023-04-23T16:12:31.221Z,1.90
2023-04-23T16:14:58.697Z,1.70
2023-04-23T16:17:28.679Z,1.40
2023-04-23T16:19:56.507Z,1.67
2023-04-23T16:22:25.625Z,1.83
2023-04-23T16:24:54.276Z,1.60
2023-04-23T16:27:22.087Z,2.00
2023-04-23T16:29:51.695Z,1.40
2023-04-23T16:32:21.016Z,2.00
2023-04-23T16:34:51.010Z,1.70
2023-04-23T16:37:18.451Z,1.95
2023-04-23T16:39:45.704Z,1.60
2023-04-23T16:42:12.802Z,1.77
2023-04-23T16:44:40.572Z,1.80
2023-04-23T16:47:08.072Z,1.90
2023-04-23T16:49:35.497Z,1.52
2023-04-23T16:52:04.056Z,1.90
2023-04-23T16:54:34.303Z,1.80
2023-04-23T16:57:02.506Z,2.05
2023-04-23T16:59:29.906Z,2.15
2023-04-23T17:01:57.368Z,2.00
2023-04-23T17:04:25.601Z,2.00
2023-04-23T17:06:53.301Z,2.40
2023-04-23T17:09:21.123Z,2.25
2023-04-23T17:11:49.008Z,1.83
2023-04-23T17:14:16.405Z,2.13
2023-04-23T17:16:45.749Z,2.20
2023-04-23T17:19:13.478Z,2.28
2023-04-23T17:21:41.593Z,2.55
2023-04-23T17:24:09.393Z,2.50
2023-04-23T17:26:38.946Z,2.25
2023-04-23T17:29:06.893Z,2.67
2023-04-23T17:31:37.674Z,2.55
2023-04-23T17:34:06.298Z,2.92
2023-04-23T17:36:33.242Z,2.78
2023-04-23T17:39:00.313Z,2.70
2023-04-23T17:41:27.407Z,2.67
2023-04-23T17:43:54.440Z,3.13
2023-04-23T17:46:21.904Z,3.28
2023-04-23T17:48:49.608Z,3.53
2023-04-23T17:51:16.811Z,3.00
2023-04-23T17:53:49.180Z,2.63
2023-04-23T17:56:16.579Z,2.60
2023-04-23T17:58:43.416Z,2.72
2023-04-23T18:01:11.601Z,2.85
2023-04-23T18:03:38.792Z,3.85
2023-04-23T18:06:08.731Z,3.72
2023-04-23T18:08:36.594Z,4.07
2023-04-23T18:11:04.676Z,3.72
2023-04-23T18:13:32.004Z,8.52
2023-04-23T18:15:59.116Z,9.35
2023-04-23T18:18:26.314Z,9.30
2023-04-23T18:20:53.619Z,8.10
2023-04-23T18:23:24.619Z,6.90
2023-04-23T18:25:52.094Z,13.48
2023-04-23T18:28:19.162Z,16.02
2023-04-23T18:30:46.711Z,52.92
2023-04-23T18:33:30.889Z,55.22
2023-04-23T18:36:04.130Z,52.05
2023-04-23T18:38:47.200Z,45.03
2023-04-23T18:43:41.535Z,18.20
2023-04-23T18:46:10.791Z,9.43
2023-04-23T18:48:43.937Z,5.20
2023-04-23T18:51:26.710Z,5.00
2023-04-23T18:53:54.199Z,5.90
2023-04-23T18:56:21.149Z,6.28
2023-04-23T18:58:48.333Z,7.65
2023-04-23T19:01:15.544Z,12.52
2023-04-23T19:03:43.319Z,10.32
2023-04-23T19:06:10.706Z,11.00
2023-04-23T19:08:38.175Z,10.07
2023-04-23T19:11:06.612Z,8.60
2023-04-23T19:13:36.888Z,8.30
2023-04-23T19:16:07.324Z,8.52
2023-04-23T19:18:34.803Z,8.35
2023-04-23T19:21:01.978Z,9.27
2023-04-23T19:23:28.971Z,10.38
2023-04-23T19:25:57.288Z,11.25
2023-04-23T19:28:25.736Z,10.82
2023-04-23T19:30:53.333Z,10.18
2023-04-23T19:33:20.198Z,10.40
2023-04-23T19:35:47.317Z,13.10
2023-04-23T19:38:14.192Z,12.20
2023-04-23T19:40:42.351Z,12.25
2023-04-23T19:43:10.848Z,13.68
2023-04-23T19:45:39.591Z,13.02
2023-04-23T19:48:07.956Z,12.27
2023-04-23T19:50:36.054Z,11.63
2023-04-23T19:53:05.886Z,12.02
2023-04-23T19:55:33.434Z,13.27
2023-04-23T19:58:01.023Z,14.25
2023-04-23T20:00:31.272Z,13.20
2023-04-23T20:02:58.855Z,14.20
2023-04-23T20:05:27.002Z,13.75
2023-04-23T20:07:54.229Z,13.23
2023-04-23T20:10:21.421Z,12.07
2023-04-23T20:12:48.384Z,13.55
2023-04-23T20:15:15.166Z,13.85
2023-04-23T20:17:42.447Z,13.45
2023-04-23T20:20:10.802Z,13.90
2023-04-23T20:22:37.972Z,16.20
2023-04-23T20:25:05.574Z,13.32
2023-04-23T20:27:33.306Z,11.98
2023-04-23T20:30:00.221Z,12.02
2023-04-23T20:32:27.016Z,11.10
2023-04-23T20:34:54.519Z,11.27
2023-04-23T20:37:21.773Z,10.68
2023-04-23T20:39:50.051Z,10.27
2023-04-23T20:42:17.290Z,11.38
2023-04-23T20:44:47.186Z,10.48
2023-04-23T20:47:16.458Z,11.20
2023-04-23T20:49:43.977Z,10.93
2023-04-23T20:52:12.347Z,10.98
2023-04-23T20:54:39.630Z,13.82
2023-04-23T20:57:07.146Z,11.70
2023-04-23T20:59:34.515Z,12.30
2023-04-23T21:02:01.523Z,12.43
2023-04-23T21:04:29.082Z,13.05
2023-04-23T21:06:56.436Z,12.68
2023-04-23T21:09:23.655Z,12.73
2023-04-23T21:11:51.051Z,12.75
2023-04-23T21:14:18.043Z,13.63
2023-04-23T21:16:44.957Z,14.73
2023-04-23T21:19:12.124Z,16.13
2023-04-23T21:21:39.591Z,16.40
2023-04-23T21:24:07.722Z,15.30
2023-04-23T21:26:34.523Z,14.95
2023-04-23T21:29:01.622Z,13.27
2023-04-23T21:31:50.990Z,11.43
2023-04-23T21:34:19.769Z,11.82
2023-04-23T21:36:47.361Z,11.90
2023-04-23T21:39:14.884Z,11.90
2023-04-23T21:41:42.082Z,11.32
2023-04-23T21:44:09.620Z,12.38
2023-04-23T21:46:38.143Z,13.30
2023-04-23T21:49:05.793Z,13.38
2023-04-23T21:51:37.313Z,13.18
2023-04-23T21:54:05.972Z,12.40
2023-04-23T21:56:36.108Z,12.77
2023-04-23T21:59:03.385Z,11.23
2023-04-23T22:01:33.651Z,12.80
2023-04-23T22:04:03.551Z,10.90
2023-04-23T22:06:31.732Z,10.70
2023-04-23T22:08:59.105Z,12.07
2023-04-23T22:11:26.205Z,11.68
2023-04-23T22:13:53.257Z,10.27
2023-04-23T22:16:28.784Z,10.77
2023-04-23T22:18:57.464Z,10.05
2023-04-23T22:21:24.760Z,10.10
2023-04-23T22:23:52.265Z,8.95
2023-04-23T22:26:19.067Z,8.55
2023-04-23T22:28:46.166Z,8.60
2023-04-23T22:31:13.381Z,8.20
2023-04-23T22:33:43.209Z,8.35
2023-04-23T22:36:10.945Z,7.30
2023-04-23T22:38:37.978Z,8.15
2023-04-23T22:41:05.404Z,7.95
2023-04-23T22:43:32.697Z,8.45
2023-04-23T22:46:00.134Z,8.20
2023-04-23T22:48:28.176Z,8.95
2023-04-23T22:50:55.279Z,7.47
2023-04-23T22:53:22.633Z,7.45
2023-04-23T22:55:49.732Z,6.55
2023-04-23T22:58:17.261Z,7.53
2023-04-23T23:00:44.507Z,7.30
2023-04-23T23:03:12.155Z,7.10
2023-04-23T23:05:39.465Z,7.05
2023-04-23T23:08:09.451Z,6.95
2023-04-23T23:10:36.559Z,7.32
2023-04-23T23:13:03.949Z,13.98
2023-04-23T23:15:31.166Z,10.68
2023-04-23T23:17:58.489Z,9.27
2023-04-23T23:20:28.369Z,8.85
2023-04-23T23:22:55.453Z,9.50
2023-04-23T23:25:23.207Z,10.18
2023-04-23T23:27:50.602Z,10.98
2023-04-23T23:30:17.827Z,10.68
2023-04-23T23:32:44.847Z,9.50
2023-04-23T23:35:11.918Z,8.68
2023-04-23T23:37:39.116Z,7.88
2023-04-23T23:40:07.262Z,7.50
2023-04-23T23:42:34.085Z,6.70
2023-04-23T23:45:01.073Z,8.80
2023-04-23T23:47:28.535Z,8.27
2023-04-23T23:49:55.716Z,8.02
2023-04-23T23:52:23.624Z,7.80
2023-04-23T23:54:51.295Z,7.95
2023-04-23T23:57:24.092Z,8.35
2023-04-23T23:59:51.958Z,8.05
